Ana Sayfa
METAR-TAF:

METAR-TAF

Havaalanları :

İncirlik Hava Üssü

İncirlik, Türkiye

Enlem: 37-00N, Boylam: 035-25E, yükseklik: 73 m

Güncel hava durumu gözlemi

Rapor saat 20:20 UTC de 27 dakika önce yapıldı.
Rüzgar doğudan 4 kt
Sıcaklık 24°C
Nem 83%
Basınç 1012 hPa
Görüş mesafesi 10 km veya daha fazla
3000 ft yükseklikte az bulutlu

METAR: LTAG 232020Z 08004KT 9999 FEW030 24/21 Q1012 NOSIG

Saat: 23:47 (20:47 UTC)

Tahmin

Rapor saat 16:40 UTC de 4 saat ve 7 dakika önce yapıldı.
Ayın 23'si saat 18 UTC'den ayın 24'si saat 18 UTC'ye kadar geçerli Tahmin
Rüzgar değişken yönden 2 kt
Görüş mesafesi 10 km veya daha fazla
3000 ft yükseklikte az bulutlu

TAF: LTAG 231640Z 2318/2418 VRB02KT 9999 FEW030

4.000'den fazla havaalanı için hava durumu gözlemleri ve tahminleri (METAR ve TAF raporları).

Kullanılabilir istasyonlar harita üzerinde sarı ve kırmızı noktalarla gösterilir.

İstasyonun adını görmek için fareyi noktanın üzerinde gezdirin.

Sonrasında hava gözlem ve tahminlerini görmek için tıklayın.

Haritayı değiştirmek için: yaklaştırmak için siyah artı işaretli yeşil düğmeye ve uzaklaştırmak için de eksi işaretli düğmeye hızla tıklayın; bitişik haritalar için yeşil okları kullanın.


METAR-TAF: